Time;durP1;ratioP1;P1;durP2;ratioP2;P2;SDS_P1;SDS_P2;PMS_P1;PMS_P2;Temp;Humidity;BMP_temperature;BMP_pressure;BME280_temperature;BME280_humidity;BME280_pressure;Samples;Min_cycle;Max_cycle;Signal;HPM_P1;HPM_P2
2022/08/05 00:00:17;;;;;;;;;;;24.20;73.80;;;;;;5114064;28;20011;-96
2022/08/05 00:02:43;;;;;;;;;;;24.10;74.10;;;;;;5113947;28;19941;-96
2022/08/05 00:05:09;;;;;;;;;;;24.00;73.90;;;;;;5114343;28;19957;-96
2022/08/05 00:07:34;;;;;;;;;;;23.80;74.90;;;;;;5113121;28;19948;-96
2022/08/05 00:10:00;;;;;;;;;;;23.70;75.50;;;;;;5113215;28;19937;-96
2022/08/05 00:12:25;;;;;;;;;;;23.60;75.90;;;;;;5114369;28;19941;-95
2022/08/05 00:14:51;;;;;;;;;;;23.50;77.60;;;;;;5113519;28;19955;-96
2022/08/05 00:17:16;;;;;;;;;;;23.70;78.40;;;;;;5114415;28;20006;-96
2022/08/05 00:19:42;;;;;;;;;;;23.70;78.50;;;;;;5117998;28;19939;-96
2022/08/05 00:22:08;;;;;;;;;;;23.70;78.60;;;;;;5117618;28;19945;-96
2022/08/05 00:24:33;;;;;;;;;;;23.70;77.70;;;;;;5118596;28;19940;-96
2022/08/05 00:26:59;;;;;;;;;;;23.60;76.40;;;;;;5116762;28;19974;-96
2022/08/05 00:29:25;;;;;;;;;;;23.70;77.70;;;;;;5117998;28;19939;-96
2022/08/05 00:31:51;;;;;;;;;;;23.80;77.90;;;;;;5115939;28;19934;-96
2022/08/05 00:34:17;;;;;;;;;;;23.70;78.20;;;;;;5114021;28;19982;-96
2022/08/05 00:36:43;;;;;;;;;;;23.70;78.20;;;;;;5115724;28;19958;-96
2022/08/05 00:39:08;;;;;;;;;;;23.60;78.40;;;;;;5115855;28;19978;-96
2022/08/05 00:41:34;;;;;;;;;;;23.60;78.20;;;;;;5118596;28;19945;-96
2022/08/05 00:44:00;;;;;;;;;;;23.40;77.90;;;;;;5118455;28;19942;-96
2022/08/05 00:46:26;;;;;;;;;;;23.50;78.90;;;;;;5110262;28;19959;-96
2022/08/05 00:48:52;;;;;;;;;;;23.60;78.70;;;;;;5105267;28;20346;-96
2022/08/05 00:51:19;;;;;;;;;;;23.30;76.60;;;;;;5105964;28;19959;-96
2022/08/05 00:53:44;;;;;;;;;;;23.20;77.00;;;;;;5105781;28;20002;-96
2022/08/05 00:56:10;;;;;;;;;;;23.30;77.20;;;;;;5104630;28;20365;-96
2022/08/05 00:58:36;;;;;;;;;;;23.30;77.80;;;;;;5106224;28;19940;-96
2022/08/05 01:01:02;;;;;;;;;;;23.50;78.60;;;;;;5104991;28;19944;-96
2022/08/05 01:03:29;;;;;;;;;;;23.40;79.10;;;;;;5105375;28;19944;-96
2022/08/05 01:05:54;;;;;;;;;;;23.40;79.40;;;;;;5106807;28;19937;-96
2022/08/05 01:08:20;;;;;;;;;;;23.50;79.20;;;;;;5106188;28;19952;-96
2022/08/05 01:10:49;;;;;;;;;;;23.50;79.10;;;;;;5105827;28;19942;-96
2022/08/05 01:13:18;;;;;;;;;;;23.50;79.20;;;;;;5105911;28;19935;-96
2022/08/05 01:15:48;;;;;;;;;;;23.60;78.60;;;;;;5105373;28;19958;-96
2022/08/05 01:18:21;;;;;;;;;;;23.50;78.10;;;;;;5105247;28;20393;-96
2022/08/05 01:20:46;;;;;;;;;;;23.50;78.10;;;;;;5105842;28;20373;-96
2022/08/05 01:23:12;;;;;;;;;;;23.50;77.90;;;;;;5104586;28;19939;-96
2022/08/05 01:25:38;;;;;;;;;;;23.40;77.10;;;;;;5103859;28;19953;-96
2022/08/05 01:28:25;;;;;;;;;;;23.30;77.70;;;;;;5106030;28;19940;-96
2022/08/05 01:30:55;;;;;;;;;;;23.30;78.80;;;;;;5106441;28;19945;-96
2022/08/05 01:33:23;;;;;;;;;;;23.20;79.00;;;;;;5105787;28;19932;-96
2022/08/05 01:35:49;;;;;;;;;;;23.10;79.30;;;;;;5105811;28;19979;-96
2022/08/05 01:40:16;;;;;;;;;;;23.10;79.10;;;;;;5120761;27;19945;-96
2022/08/05 01:42:44;;;;;;;;;;;22.90;77.80;;;;;;5120849;28;19940;-96
2022/08/05 01:45:10;;;;;;;;;;;22.80;78.90;;;;;;5122336;28;19938;-96
2022/08/05 01:47:36;;;;;;;;;;;22.80;79.60;;;;;;5122075;28;20030;-96
2022/08/05 01:50:03;;;;;;;;;;;22.80;80.20;;;;;;5118266;28;19949;-96
2022/08/05 01:52:30;;;;;;;;;;;22.80;80.50;;;;;;5117145;28;20414;-96
2022/08/05 01:54:58;;;;;;;;;;;22.80;81.00;;;;;;5117631;28;20010;-96
2022/08/05 01:57:25;;;;;;;;;;;22.80;80.20;;;;;;5117836;28;19942;-96
2022/08/05 01:59:52;;;;;;;;;;;22.80;78.40;;;;;;5117826;28;19990;-96
2022/08/05 02:02:19;;;;;;;;;;;22.70;79.00;;;;;;5116706;28;19937;-96
2022/08/05 02:04:45;;;;;;;;;;;22.70;79.70;;;;;;5118151;28;19939;-96
2022/08/05 02:07:11;;;;;;;;;;;22.80;79.10;;;;;;5114821;28;19944;-96
2022/08/05 02:09:36;;;;;;;;;;;22.90;79.40;;;;;;5116866;28;19947;-96
2022/08/05 02:12:16;;;;;;;;;;;22.90;79.70;;;;;;5115486;28;19938;-96
2022/08/05 02:14:43;;;;;;;;;;;22.90;79.00;;;;;;5116709;28;19943;-96
2022/08/05 02:17:22;;;;;;;;;;;22.80;77.90;;;;;;5116141;28;19935;-97
2022/08/05 02:19:49;;;;;;;;;;;22.80;78.40;;;;;;5117578;28;19996;-96
2022/08/05 02:22:17;;;;;;;;;;;22.80;78.80;;;;;;5116863;28;19942;-96
2022/08/05 02:24:46;;;;;;;;;;;22.80;79.50;;;;;;5115940;28;19993;-96
2022/08/05 02:27:13;;;;;;;;;;;22.80;79.90;;;;;;5117068;28;19938;-96
2022/08/05 02:29:40;;;;;;;;;;;22.80;80.50;;;;;;5116436;28;19933;-96
2022/08/05 02:32:07;;;;;;;;;;;22.80;80.40;;;;;;5117504;28;19999;-96
2022/08/05 02:34:33;;;;;;;;;;;22.80;80.10;;;;;;5115762;28;19951;-96
2022/08/05 02:37:01;;;;;;;;;;;22.80;80.70;;;;;;5116723;28;19958;-96
2022/08/05 02:39:33;;;;;;;;;;;22.70;81.00;;;;;;5116688;28;19977;-96
2022/08/05 02:41:59;;;;;;;;;;;22.60;80.10;;;;;;5115465;28;20068;-96
2022/08/05 02:44:25;;;;;;;;;;;22.60;79.70;;;;;;5116592;28;19938;-96
2022/08/05 02:46:53;;;;;;;;;;;22.30;80.10;;;;;;5115077;28;19973;-96
2022/08/05 02:49:19;;;;;;;;;;;22.40;80.50;;;;;;5118691;28;19939;-96
2022/08/05 02:51:45;;;;;;;;;;;22.50;81.00;;;;;;5105224;28;19983;-96
2022/08/05 02:54:12;;;;;;;;;;;22.40;81.50;;;;;;5104345;28;20392;-96
2022/08/05 02:56:38;;;;;;;;;;;22.40;81.30;;;;;;5102105;28;20518;-96
2022/08/05 02:59:04;;;;;;;;;;;22.50;80.80;;;;;;5103640;28;19998;-96
2022/08/05 03:01:32;;;;;;;;;;;22.50;80.50;;;;;;5103525;28;19939;-96
2022/08/05 03:04:00;;;;;;;;;;;22.40;79.30;;;;;;5106777;28;19964;-96
2022/08/05 03:06:25;;;;;;;;;;;22.30;80.10;;;;;;5107265;28;19944;-96
2022/08/05 03:08:52;;;;;;;;;;;22.30;80.20;;;;;;5107868;28;19945;-96
2022/08/05 03:11:20;;;;;;;;;;;22.30;81.30;;;;;;5107056;28;20460;-96
2022/08/05 03:13:46;;;;;;;;;;;22.30;81.60;;;;;;5105842;28;19967;-96
2022/08/05 03:16:12;;;;;;;;;;;22.30;81.90;;;;;;5106797;28;19976;-96
2022/08/05 03:18:38;;;;;;;;;;;22.30;81.90;;;;;;5107358;28;19970;-96
2022/08/05 03:21:04;;;;;;;;;;;22.30;81.80;;;;;;5108740;28;19933;-96
2022/08/05 03:23:30;;;;;;;;;;;22.30;82.20;;;;;;5107674;28;19947;-96
2022/08/05 03:25:56;;;;;;;;;;;22.20;82.00;;;;;;5106724;28;20420;-96
2022/08/05 03:28:21;;;;;;;;;;;22.20;82.10;;;;;;5108747;28;19945;-96
2022/08/05 03:30:51;;;;;;;;;;;22.20;81.40;;;;;;5106567;28;20005;-96
2022/08/05 03:33:17;;;;;;;;;;;22.00;80.00;;;;;;5107360;28;19941;-96
2022/08/05 03:35:46;;;;;;;;;;;21.90;80.60;;;;;;5105452;28;19998;-96
2022/08/05 03:38:15;;;;;;;;;;;22.00;81.30;;;;;;5106455;28;20503;-96
2022/08/05 03:40:42;;;;;;;;;;;22.20;81.20;;;;;;5106952;28;20418;-96
2022/08/05 03:43:08;;;;;;;;;;;22.30;81.20;;;;;;5105415;28;19972;-96
2022/08/05 03:45:33;;;;;;;;;;;22.30;81.10;;;;;;5106131;28;19939;-96
2022/08/05 03:47:59;;;;;;;;;;;22.20;81.20;;;;;;5104132;28;19963;-96
2022/08/05 03:50:33;;;;;;;;;;;22.10;81.50;;;;;;5105410;28;19950;-96
2022/08/05 03:53:10;;;;;;;;;;;22.10;81.60;;;;;;5106679;28;20025;-96
2022/08/05 03:55:38;;;;;;;;;;;22.10;82.00;;;;;;5107750;28;20412;-96
2022/08/05 03:58:09;;;;;;;;;;;22.10;82.20;;;;;;5107121;28;20481;-96
2022/08/05 04:00:36;;;;;;;;;;;22.00;82.80;;;;;;5106613;28;19985;-96
2022/08/05 04:03:03;;;;;;;;;;;21.90;82.10;;;;;;5106629;28;19943;-96
2022/08/05 04:05:30;;;;;;;;;;;21.80;82.40;;;;;;5106727;28;19941;-96
2022/08/05 04:07:55;;;;;;;;;;;21.60;83.20;;;;;;5104197;28;19940;-96
2022/08/05 04:10:21;;;;;;;;;;;21.70;83.60;;;;;;5104089;28;19932;-96
2022/08/05 04:12:47;;;;;;;;;;;21.80;83.40;;;;;;5104797;28;19937;-96
2022/08/05 04:15:13;;;;;;;;;;;21.80;83.50;;;;;;5105025;28;20329;-96
2022/08/05 04:17:39;;;;;;;;;;;21.70;83.90;;;;;;5103878;28;19942;-96
2022/08/05 04:20:05;;;;;;;;;;;21.70;84.30;;;;;;5104372;28;20428;-96
2022/08/05 04:22:30;;;;;;;;;;;21.70;84.20;;;;;;5106934;28;19963;-96
2022/08/05 04:24:56;;;;;;;;;;;21.80;83.90;;;;;;5107013;28;20369;-96
2022/08/05 04:27:24;;;;;;;;;;;21.80;83.50;;;;;;5107552;28;20032;-96
2022/08/05 04:29:51;;;;;;;;;;;21.80;83.60;;;;;;5107407;28;19942;-96
2022/08/05 04:32:16;;;;;;;;;;;22.00;83.60;;;;;;5105023;28;19981;-96
2022/08/05 04:34:42;;;;;;;;;;;22.20;83.10;;;;;;5104579;28;19987;-96
2022/08/05 04:37:08;;;;;;;;;;;22.20;82.80;;;;;;5105050;28;19957;-96
2022/08/05 04:39:33;;;;;;;;;;;22.30;82.30;;;;;;5105670;28;19982;-96
2022/08/05 04:41:59;;;;;;;;;;;22.40;82.40;;;;;;5105981;28;19943;-96
2022/08/05 04:44:25;;;;;;;;;;;22.40;82.60;;;;;;5104787;28;19939;-96
2022/08/05 04:46:50;;;;;;;;;;;22.30;82.70;;;;;;5105720;28;20017;-96
2022/08/05 04:49:16;;;;;;;;;;;22.30;82.40;;;;;;5102531;28;19941;-96
2022/08/05 04:51:42;;;;;;;;;;;22.20;82.80;;;;;;5104799;28;19944;-96
2022/08/05 05:09:24;;;;;;;;;;;22.30;82.70;;;;;;5133175;27;20322;-96
2022/08/05 05:11:50;;;;;;;;;;;22.80;80.00;;;;;;5134183;28;19948;-96
2022/08/05 05:14:16;;;;;;;;;;;22.90;79.50;;;;;;5133930;28;19934;-96
2022/08/05 05:16:42;;;;;;;;;;;23.00;79.60;;;;;;5134143;28;19946;-96
2022/08/05 05:19:07;;;;;;;;;;;23.10;79.50;;;;;;5139964;28;19946;-96
2022/08/05 05:21:33;;;;;;;;;;;23.20;79.40;;;;;;5129459;28;19987;-96
2022/08/05 05:23:59;;;;;;;;;;;23.20;78.90;;;;;;5146172;28;19954;-96
2022/08/05 05:26:25;;;;;;;;;;;23.30;78.60;;;;;;5129411;28;19942;-96
2022/08/05 05:28:51;;;;;;;;;;;23.40;78.80;;;;;;5129145;28;19958;-97
2022/08/05 05:31:18;;;;;;;;;;;23.50;78.70;;;;;;5129745;28;19945;-96
2022/08/05 05:33:44;;;;;;;;;;;23.60;78.40;;;;;;5147385;28;19939;-96
2022/08/05 05:36:10;;;;;;;;;;;23.60;78.00;;;;;;5120157;28;19999;-96
2022/08/05 05:38:38;;;;;;;;;;;23.70;78.10;;;;;;5107801;28;19937;-96
2022/08/05 05:58:42;;;;;;;;;;;23.90;77.30;;;;;;5166772;27;20291;-96
2022/08/05 06:01:10;;;;;;;;;;;25.00;73.40;;;;;;5133640;22;19976;-96
2022/08/05 06:03:37;;;;;;;;;;;25.10;72.90;;;;;;5048319;28;20409;-96
2022/08/05 06:06:05;;;;;;;;;;;25.20;73.10;;;;;;5048115;28;19948;-96
2022/08/05 06:08:31;;;;;;;;;;;25.20;71.20;;;;;;5048362;28;20031;-96
2022/08/05 06:10:58;;;;;;;;;;;25.30;70.80;;;;;;5049338;28;20352;-96
2022/08/05 06:13:24;;;;;;;;;;;25.40;70.80;;;;;;5049665;28;20058;-96
2022/08/05 06:15:53;;;;;;;;;;;25.50;70.50;;;;;;5066060;28;19943;-96
2022/08/05 06:18:20;;;;;;;;;;;25.60;70.40;;;;;;5048799;28;19972;-96
2022/08/05 06:20:46;;;;;;;;;;;25.70;70.40;;;;;;5048175;28;19947;-96
2022/08/05 06:23:12;;;;;;;;;;;25.80;67.10;;;;;;5047923;28;19947;-96
2022/08/05 06:25:40;;;;;;;;;;;26.00;66.80;;;;;;5049088;28;19947;-96
2022/08/05 06:37:36;;;;;;;;;;;26.20;65.80;;;;;;5124219;27;20032;-96
2022/08/05 06:46:59;;;;;;;;;;;26.90;63.90;;;;;;5153300;27;20376;-96
2022/08/05 06:49:25;;;;;;;;;;;27.20;62.70;;;;;;5130158;28;19942;-96
2022/08/05 06:51:51;;;;;;;;;;;27.30;62.90;;;;;;5134152;28;19966;-96
2022/08/05 06:54:19;;;;;;;;;;;27.30;62.70;;;;;;5153344;28;19966;-96
2022/08/05 07:02:36;;;;;;;;;;;27.50;61.80;;;;;;5086949;22;19978;-96
2022/08/05 07:07:50;;;;;;;;;;;27.70;61.10;;;;;;5882366;22;19969;-96
2022/08/05 07:10:24;;;;;;;;;;;27.80;60.60;;;;;;5074183;28;19934;-96
2022/08/05 07:18:29;;;;;;;;;;;28.10;58.60;;;;;;5071614;28;19961;-96
2022/08/05 07:20:55;;;;;;;;;;;28.30;58.60;;;;;;5069881;28;19954;-96
2022/08/05 07:23:27;;;;;;;;;;;28.40;58.10;;;;;;5069753;28;19941;-96
2022/08/05 08:03:51;;;;;;;;;;;29.60;52.30;;;;;;6115475;22;3502637;-96
2022/08/05 08:06:24;;;;;;;;;;;29.70;51.10;;;;;;6222998;23;19945;-97
2022/08/05 08:08:51;;;;;;;;;;;29.70;51.60;;;;;;6222598;23;19951;-96
2022/08/05 08:11:23;;;;;;;;;;;29.90;50.00;;;;;;6222535;23;19946;-96
2022/08/05 08:13:59;;;;;;;;;;;30.00;48.80;;;;;;6215165;23;19964;-96
2022/08/05 08:16:26;;;;;;;;;;;30.10;48.00;;;;;;6160116;23;19979;-96
2022/08/05 08:24:02;;;;;;;;;;;30.40;47.20;;;;;;6200994;22;20440;-96
2022/08/05 08:26:28;;;;;;;;;;;30.50;48.70;;;;;;6170281;23;19942;-95
2022/08/05 08:28:53;;;;;;;;;;;30.60;48.90;;;;;;6199415;23;19972;-96
2022/08/05 08:31:19;;;;;;;;;;;30.60;46.40;;;;;;6198612;23;20369;-96
2022/08/05 08:33:45;;;;;;;;;;;30.70;46.50;;;;;;6178636;23;19942;-96
2022/08/05 08:36:12;;;;;;;;;;;30.80;44.20;;;;;;6191872;23;19977;-96
2022/08/05 08:38:43;;;;;;;;;;;30.80;43.00;;;;;;6218117;23;19983;-96
2022/08/05 08:41:22;;;;;;;;;;;30.80;43.30;;;;;;6192724;23;20347;-96
2022/08/05 08:43:55;;;;;;;;;;;31.00;44.30;;;;;;6190436;23;19977;-96
2022/08/05 08:46:30;;;;;;;;;;;31.10;43.70;;;;;;6191270;23;19939;-96
2022/08/05 08:49:04;;;;;;;;;;;31.20;44.20;;;;;;6214207;23;19937;-96
2022/08/05 08:51:42;;;;;;;;;;;31.30;43.10;;;;;;6164289;23;19939;-96
2022/08/05 08:54:10;;;;;;;;;;;31.40;42.90;;;;;;6183774;23;19953;-96
2022/08/05 08:59:11;;;;;;;;;;;31.40;42.90;;;;;;6195702;22;19981;-96
2022/08/05 09:01:38;;;;;;;;;;;31.50;43.10;;;;;;6191544;23;19936;-96
2022/08/05 09:04:03;;;;;;;;;;;31.70;42.20;;;;;;6187007;23;19944;-96
2022/08/05 09:06:33;;;;;;;;;;;31.70;42.10;;;;;;6190853;23;19938;-96
2022/08/05 09:08:59;;;;;;;;;;;31.80;42.40;;;;;;6180983;23;19943;-96
2022/08/05 09:11:26;;;;;;;;;;;31.80;42.40;;;;;;6180943;23;19937;-96
2022/08/05 09:13:52;;;;;;;;;;;31.90;43.80;;;;;;6208516;23;19939;-96
2022/08/05 09:16:19;;;;;;;;;;;32.00;42.60;;;;;;6195851;23;19961;-96
2022/08/05 09:18:46;;;;;;;;;;;31.90;42.20;;;;;;6195211;23;19941;-96
2022/08/05 09:21:13;;;;;;;;;;;32.00;42.50;;;;;;6193369;23;19948;-96
2022/08/05 09:24:09;;;;;;;;;;;32.20;43.10;;;;;;6198693;23;19943;-96
2022/08/05 09:26:35;;;;;;;;;;;32.30;42.40;;;;;;6161051;23;19966;-96
2022/08/05 09:29:04;;;;;;;;;;;32.30;40.60;;;;;;6197067;23;19916;-96
2022/08/05 09:39:23;;;;;;;;;;;32.40;39.00;;;;;;6202177;23;19980;-96
2022/08/05 09:42:03;;;;;;;;;;;32.60;39.30;;;;;;6182371;23;19942;-96
2022/08/05 09:47:09;;;;;;;;;;;32.70;38.30;;;;;;6209196;23;19998;-96
2022/08/05 09:49:38;;;;;;;;;;;32.90;35.20;;;;;;6198593;23;19949;-96
2022/08/05 09:52:16;;;;;;;;;;;33.10;35.40;;;;;;6193577;23;19932;-96
2022/08/05 09:54:52;;;;;;;;;;;33.20;36.50;;;;;;6166100;23;19960;-96
2022/08/05 09:57:47;;;;;;;;;;;33.20;36.20;;;;;;6189346;23;19965;-96
2022/08/05 10:00:14;;;;;;;;;;;33.30;36.50;;;;;;6164278;23;19941;-96
2022/08/05 10:02:42;;;;;;;;;;;33.40;34.60;;;;;;6196311;23;19938;-96
2022/08/05 10:05:09;;;;;;;;;;;33.50;32.40;;;;;;6205442;23;19935;-96
2022/08/05 10:07:42;;;;;;;;;;;33.50;33.10;;;;;;6205593;23;19947;-96
2022/08/05 10:10:09;;;;;;;;;;;33.60;32.60;;;;;;6205174;23;19942;-96
2022/08/05 10:12:48;;;;;;;;;;;33.60;33.70;;;;;;6176589;23;19938;-96
2022/08/05 10:15:15;;;;;;;;;;;33.60;35.60;;;;;;6176420;23;19950;-96
2022/08/05 10:17:42;;;;;;;;;;;33.60;35.70;;;;;;6170740;23;19960;-96
2022/08/05 10:20:10;;;;;;;;;;;33.70;34.50;;;;;;6173243;23;19955;-96
2022/08/05 10:22:41;;;;;;;;;;;33.70;35.40;;;;;;6199328;23;20032;-96
2022/08/05 10:25:07;;;;;;;;;;;33.70;37.00;;;;;;6169616;23;19933;-96
2022/08/05 10:27:32;;;;;;;;;;;33.80;37.60;;;;;;6172542;23;19946;-96
2022/08/05 10:29:58;;;;;;;;;;;34.00;37.00;;;;;;6202011;23;19941;-96
2022/08/05 10:32:24;;;;;;;;;;;34.20;36.60;;;;;;6199975;23;20020;-96
2022/08/05 10:34:50;;;;;;;;;;;34.10;36.10;;;;;;6201362;23;20303;-96
2022/08/05 10:37:16;;;;;;;;;;;34.10;36.70;;;;;;6172415;23;20043;-96
2022/08/05 10:39:44;;;;;;;;;;;34.20;36.40;;;;;;6192386;23;20017;-96
2022/08/05 10:42:15;;;;;;;;;;;34.20;36.10;;;;;;6194369;23;19987;-96
2022/08/05 10:44:44;;;;;;;;;;;34.20;36.20;;;;;;6195928;23;20376;-96
2022/08/05 10:47:11;;;;;;;;;;;34.20;36.60;;;;;;6196239;23;19946;-96
2022/08/05 10:49:57;;;;;;;;;;;34.20;36.30;;;;;;6196704;23;19942;-96
2022/08/05 10:52:42;;;;;;;;;;;34.50;36.50;;;;;;6194992;23;19940;-96
2022/08/05 11:09:53;;;;;;;;;;;34.80;34.60;;;;;;5805753;22;10698898;-96
2022/08/05 11:12:24;;;;;;;;;;;34.90;33.60;;;;;;6311536;22;19948;-96
2022/08/05 11:15:15;;;;;;;;;;;34.90;32.90;;;;;;6308189;22;19963;-96
2022/08/05 11:35:51;;;;;;;;;;;35.30;32.40;;;;;;5136104;27;19965;-96
2022/08/05 11:38:17;;;;;;;;;;;35.20;33.30;;;;;;5120226;28;20032;-96
2022/08/05 11:40:59;;;;;;;;;;;35.40;33.10;;;;;;5104100;28;19944;-96
2022/08/05 11:43:25;;;;;;;;;;;35.60;33.80;;;;;;5122883;28;20292;-96
2022/08/05 11:48:12;;;;;;;;;;;35.70;31.90;;;;;;5113742;27;19954;-96
2022/08/05 11:50:38;;;;;;;;;;;35.60;32.20;;;;;;5112850;28;20036;-96
2022/08/05 11:53:04;;;;;;;;;;;35.60;32.50;;;;;;5111915;28;19939;-96
2022/08/05 11:55:29;;;;;;;;;;;35.70;32.00;;;;;;5110460;28;19995;-96
2022/08/05 11:57:55;;;;;;;;;;;36.00;33.00;;;;;;5111888;28;19942;-96
2022/08/05 12:00:34;;;;;;;;;;;36.10;31.50;;;;;;5113359;28;19945;-96
2022/08/05 12:03:14;;;;;;;;;;;36.40;32.40;;;;;;5133523;22;20477;-96
2022/08/05 12:05:40;;;;;;;;;;;36.40;30.40;;;;;;5097121;28;20001;-96
2022/08/05 12:08:06;;;;;;;;;;;36.30;30.30;;;;;;5079027;28;19971;-96
2022/08/05 12:10:35;;;;;;;;;;;36.70;31.70;;;;;;5084650;28;19958;-96
2022/08/05 12:17:56;;;;;;;;;;;36.90;29.90;;;;;;4978285;27;5392617;-96
2022/08/05 12:21:57;;;;;;;;;;;37.10;29.50;;;;;;5107382;28;20040;-96
2022/08/05 12:24:23;;;;;;;;;;;36.40;29.80;;;;;;5107561;28;19944;-96
2022/08/05 12:28:40;;;;;;;;;;;36.60;30.10;;;;;;5115666;27;19958;-96
2022/08/05 12:31:33;;;;;;;;;;;36.70;29.80;;;;;;4948404;27;5708349;-96
2022/08/05 14:08:11;;;;;;;;;;;41.30;24.00;;;;;;6200743;23;19965;-96
2022/08/05 14:15:48;;;;;;;;;;;41.20;24.20;;;;;;6166178;23;20008;-96
2022/08/05 14:18:15;;;;;;;;;;;41.60;24.60;;;;;;6184602;23;19943;-96
2022/08/05 14:20:43;;;;;;;;;;;42.40;23.60;;;;;;6214368;23;19966;-96
2022/08/05 14:23:14;;;;;;;;;;;43.30;22.20;;;;;;6201479;23;19975;-96
2022/08/05 14:25:46;;;;;;;;;;;42.40;22.80;;;;;;6214150;23;19947;-96
2022/08/05 14:28:19;;;;;;;;;;;41.30;24.00;;;;;;6188127;23;20006;-96
2022/08/05 14:46:22;;;;;;;;;;;43.10;22.60;;;;;;6197924;23;19991;-96
2022/08/05 14:48:53;;;;;;;;;;;42.20;22.90;;;;;;6184256;23;19966;-96
2022/08/05 14:51:22;;;;;;;;;;;42.40;22.70;;;;;;6161292;23;19942;-96
2022/08/05 14:54:10;;;;;;;;;;;42.40;22.30;;;;;;6212609;23;19943;-96
2022/08/05 14:56:45;;;;;;;;;;;42.50;22.80;;;;;;6185490;23;19962;-96
2022/08/05 14:59:15;;;;;;;;;;;43.00;22.50;;;;;;6212205;23;19958;-96
2022/08/05 15:01:42;;;;;;;;;;;43.10;22.10;;;;;;6206073;23;19963;-96
2022/08/05 15:04:10;;;;;;;;;;;42.50;22.70;;;;;;6183374;23;19937;-96
2022/08/05 15:06:36;;;;;;;;;;;42.50;22.70;;;;;;6186261;23;19938;-96
2022/08/05 15:09:02;;;;;;;;;;;43.20;22.40;;;;;;6206591;23;19940;-96
2022/08/05 15:11:29;;;;;;;;;;;43.40;22.00;;;;;;6207201;23;19945;-96
2022/08/05 15:13:56;;;;;;;;;;;43.10;22.50;;;;;;6179679;23;20363;-96
2022/08/05 15:16:22;;;;;;;;;;;43.50;21.20;;;;;;6178984;23;19944;-96
2022/08/05 15:18:48;;;;;;;;;;;43.10;21.40;;;;;;6175662;23;19934;-96
2022/08/05 15:21:14;;;;;;;;;;;42.50;22.20;;;;;;6206262;23;19933;-96
2022/08/05 15:23:40;;;;;;;;;;;42.90;21.70;;;;;;6209005;23;19956;-96
2022/08/05 15:26:06;;;;;;;;;;;43.30;21.60;;;;;;6183604;23;20266;-96
2022/08/05 15:28:32;;;;;;;;;;;43.50;21.70;;;;;;6180916;23;19948;-96
2022/08/05 15:30:58;;;;;;;;;;;43.20;21.80;;;;;;6178420;23;19938;-97
2022/08/05 15:33:25;;;;;;;;;;;42.60;22.60;;;;;;6179083;23;19950;-96
2022/08/05 15:35:50;;;;;;;;;;;42.60;22.80;;;;;;6204430;23;19959;-96
2022/08/05 15:38:16;;;;;;;;;;;42.50;23.00;;;;;;6179139;23;19967;-96
2022/08/05 15:40:42;;;;;;;;;;;42.90;22.80;;;;;;6181402;23;19942;-96
2022/08/05 15:43:08;;;;;;;;;;;43.00;22.90;;;;;;6181743;23;19947;-96
2022/08/05 15:45:44;;;;;;;;;;;43.20;21.90;;;;;;6184285;23;19967;-96
2022/08/05 15:58:55;;;;;;;;;;;43.20;22.90;;;;;;6172035;23;19982;-96
2022/08/05 16:01:23;;;;;;;;;;;42.50;23.00;;;;;;6179821;23;20034;-96
2022/08/05 16:03:49;;;;;;;;;;;42.30;23.60;;;;;;6204253;23;20006;-96
2022/08/05 16:06:19;;;;;;;;;;;42.40;24.60;;;;;;6210374;23;19928;-96
2022/08/05 16:08:48;;;;;;;;;;;42.70;24.20;;;;;;6186751;23;19968;-96
2022/08/05 16:11:16;;;;;;;;;;;42.70;24.10;;;;;;6186774;23;19918;-96
2022/08/05 16:13:45;;;;;;;;;;;42.40;24.70;;;;;;6210811;23;19928;-96
2022/08/05 16:16:12;;;;;;;;;;;41.50;25.00;;;;;;6182551;23;19942;-96
2022/08/05 16:18:38;;;;;;;;;;;40.70;25.20;;;;;;6209366;23;19935;-96
2022/08/05 16:21:08;;;;;;;;;;;40.60;25.90;;;;;;6182647;23;19986;-96
2022/08/05 16:23:36;;;;;;;;;;;40.60;25.70;;;;;;6185062;23;19949;-96
2022/08/05 16:26:09;;;;;;;;;;;40.80;25.90;;;;;;6211393;23;19961;-96
2022/08/05 16:28:43;;;;;;;;;;;40.00;26.30;;;;;;6177858;23;19939;-96
2022/08/05 16:31:14;;;;;;;;;;;39.20;27.70;;;;;;6209940;23;19941;-96
2022/08/05 16:33:44;;;;;;;;;;;39.20;27.80;;;;;;6211267;23;19939;-96
2022/08/05 16:36:10;;;;;;;;;;;39.50;27.70;;;;;;6184000;23;19960;-96
2022/08/05 16:38:41;;;;;;;;;;;39.60;27.80;;;;;;6210788;23;19962;-97
2022/08/05 16:41:07;;;;;;;;;;;39.90;27.60;;;;;;6184058;23;19921;-96
2022/08/05 16:43:33;;;;;;;;;;;39.80;28.40;;;;;;6180829;23;19940;-96
2022/08/05 16:46:01;;;;;;;;;;;39.80;27.50;;;;;;6205064;23;19979;-96
2022/08/05 16:48:27;;;;;;;;;;;39.70;26.90;;;;;;6206620;23;19952;-96
2022/08/05 16:50:52;;;;;;;;;;;39.30;28.50;;;;;;6206412;23;19939;-96
2022/08/05 16:53:18;;;;;;;;;;;39.40;28.60;;;;;;6205454;23;19984;-96
2022/08/05 16:55:47;;;;;;;;;;;39.50;29.20;;;;;;6205038;23;19956;-96
2022/08/05 16:58:13;;;;;;;;;;;39.40;30.00;;;;;;6179268;23;19962;-96
2022/08/05 17:00:41;;;;;;;;;;;39.20;30.50;;;;;;6181081;23;19971;-96
2022/08/05 17:03:07;;;;;;;;;;;39.10;30.10;;;;;;6178370;23;19941;-96
2022/08/05 17:05:33;;;;;;;;;;;38.70;31.40;;;;;;6175528;23;19963;-96
2022/08/05 17:07:59;;;;;;;;;;;38.20;31.30;;;;;;6203691;23;19934;-96
2022/08/05 17:10:24;;;;;;;;;;;38.10;31.50;;;;;;6179819;23;19945;-96
2022/08/05 17:12:50;;;;;;;;;;;37.80;32.60;;;;;;6178452;23;19969;-96
2022/08/05 17:15:17;;;;;;;;;;;37.70;32.50;;;;;;6204701;23;20339;-96
2022/08/05 17:17:43;;;;;;;;;;;37.50;33.00;;;;;;6179465;23;19961;-96
2022/08/05 17:20:09;;;;;;;;;;;37.30;33.00;;;;;;6177721;23;19962;-96
2022/08/05 17:22:36;;;;;;;;;;;37.20;33.20;;;;;;6201910;23;19959;-96
2022/08/05 17:25:02;;;;;;;;;;;37.10;32.90;;;;;;6171879;23;19950;-96
2022/08/05 17:27:29;;;;;;;;;;;36.80;32.50;;;;;;6192704;23;20004;-96
2022/08/05 17:29:55;;;;;;;;;;;36.70;32.60;;;;;;6196462;23;19937;-96
2022/08/05 17:32:20;;;;;;;;;;;36.60;32.90;;;;;;6196756;23;19999;-96
2022/08/05 17:34:47;;;;;;;;;;;36.30;33.40;;;;;;6195440;23;19932;-96
2022/08/05 17:37:12;;;;;;;;;;;36.40;33.30;;;;;;6199777;23;19963;-97
2022/08/05 17:39:38;;;;;;;;;;;36.20;33.10;;;;;;6205426;23;20336;-96
2022/08/05 17:42:05;;;;;;;;;;;36.10;33.40;;;;;;6206329;23;19960;-96
2022/08/05 17:44:31;;;;;;;;;;;35.70;34.30;;;;;;6178562;23;19964;-96
2022/08/05 17:46:56;;;;;;;;;;;35.60;33.90;;;;;;6178465;23;20254;-96
2022/08/05 17:49:22;;;;;;;;;;;35.50;34.20;;;;;;6178328;23;20039;-96
2022/08/05 17:51:48;;;;;;;;;;;35.30;34.70;;;;;;6204479;23;19937;-96
2022/08/05 17:54:14;;;;;;;;;;;35.20;34.70;;;;;;6176979;23;19968;-96
2022/08/05 17:56:40;;;;;;;;;;;35.10;34.50;;;;;;6176418;23;19980;-96
2022/08/05 17:59:05;;;;;;;;;;;34.90;34.90;;;;;;6176285;23;20015;-96
2022/08/05 18:01:31;;;;;;;;;;;34.70;35.20;;;;;;6201441;23;19983;-96
2022/08/05 18:03:57;;;;;;;;;;;34.60;35.10;;;;;;6201166;23;19937;-96
2022/08/05 18:06:23;;;;;;;;;;;34.50;35.50;;;;;;6200964;23;19937;-96
2022/08/05 18:08:48;;;;;;;;;;;34.40;35.70;;;;;;6174680;23;19983;-96
2022/08/05 18:11:15;;;;;;;;;;;34.30;35.80;;;;;;6175605;23;19947;-96
2022/08/05 18:13:41;;;;;;;;;;;34.20;36.00;;;;;;6175964;23;19950;-96
2022/08/05 18:16:08;;;;;;;;;;;34.00;36.80;;;;;;6207711;23;19938;-96
2022/08/05 18:18:37;;;;;;;;;;;33.80;37.10;;;;;;6208544;23;19956;-96
2022/08/05 18:21:03;;;;;;;;;;;33.70;36.50;;;;;;6175898;23;19943;-96
2022/08/05 18:23:29;;;;;;;;;;;33.50;36.40;;;;;;6172694;23;19944;-96
2022/08/05 18:25:54;;;;;;;;;;;33.30;36.60;;;;;;6199661;23;19960;-96
2022/08/05 18:28:20;;;;;;;;;;;33.20;36.80;;;;;;6173103;23;20364;-96
2022/08/05 18:30:46;;;;;;;;;;;33.20;36.90;;;;;;6198927;23;19945;-96
2022/08/05 18:33:12;;;;;;;;;;;33.00;37.10;;;;;;6196380;23;19987;-96
2022/08/05 18:35:37;;;;;;;;;;;33.00;37.40;;;;;;6163802;23;19958;-96
2022/08/05 18:38:03;;;;;;;;;;;32.90;37.60;;;;;;6188069;23;19957;-96
2022/08/05 18:40:28;;;;;;;;;;;32.70;38.00;;;;;;6187322;23;19946;-96
2022/08/05 18:42:55;;;;;;;;;;;32.60;37.50;;;;;;6187653;23;19935;-96
2022/08/05 18:45:21;;;;;;;;;;;32.50;37.60;;;;;;6187334;23;20018;-96
2022/08/05 18:47:46;;;;;;;;;;;32.40;37.60;;;;;;6187634;23;19934;-96
2022/08/05 18:52:56;;;;;;;;;;;32.30;37.60;;;;;;6187304;23;19945;-96
2022/08/05 18:55:21;;;;;;;;;;;32.20;37.70;;;;;;6187248;23;19936;-96
2022/08/05 18:57:47;;;;;;;;;;;32.20;37.70;;;;;;6160613;23;20018;-96
2022/08/05 19:00:13;;;;;;;;;;;32.10;37.60;;;;;;6187023;23;20315;-96
2022/08/05 19:02:38;;;;;;;;;;;32.10;37.80;;;;;;6187824;23;19962;-96
2022/08/05 19:05:05;;;;;;;;;;;31.90;39.40;;;;;;6187189;23;19989;-96
2022/08/05 19:07:30;;;;;;;;;;;31.80;39.30;;;;;;6187430;23;19941;-96
2022/08/05 19:09:56;;;;;;;;;;;31.70;38.80;;;;;;6187075;23;20014;-96
2022/08/05 19:12:22;;;;;;;;;;;31.70;39.40;;;;;;6187377;23;19945;-96